sensor_id;sensor_type;location;lat;lon;timestamp;P1;durP1;ratioP1;P2;durP2;ratioP2
34657;SDS011;20865;43.312;27.152;2023-02-21T00:00:53;2.10;;;1.42;;
34657;SDS011;20865;43.312;27.152;2023-02-21T00:03:39;3.17;;;1.40;;
34657;SDS011;20865;43.312;27.152;2023-02-21T00:06:24;2.47;;;1.42;;
34657;SDS011;20865;43.312;27.152;2023-02-21T00:09:10;2.98;;;1.22;;
34657;SDS011;20865;43.312;27.152;2023-02-21T00:11:55;3.30;;;1.32;;
34657;SDS011;20865;43.312;27.152;2023-02-21T00:14:41;2.40;;;1.17;;
34657;SDS011;20865;43.312;27.152;2023-02-21T00:17:26;1.90;;;1.15;;
34657;SDS011;20865;43.312;27.152;2023-02-21T00:20:12;8.33;;;1.80;;
34657;SDS011;20865;43.312;27.152;2023-02-21T00:22:57;3.25;;;1.10;;
34657;SDS011;20865;43.312;27.152;2023-02-21T00:25:42;2.40;;;1.15;;
34657;SDS011;20865;43.312;27.152;2023-02-21T00:28:28;2.60;;;1.10;;
34657;SDS011;20865;43.312;27.152;2023-02-21T00:31:20;2.50;;;1.05;;
34657;SDS011;20865;43.312;27.152;2023-02-21T00:34:03;4.67;;;1.70;;
34657;SDS011;20865;43.312;27.152;2023-02-21T00:36:48;8.10;;;2.50;;
34657;SDS011;20865;43.312;27.152;2023-02-21T00:39:35;8.10;;;1.92;;
34657;SDS011;20865;43.312;27.152;2023-02-21T00:42:22;7.97;;;2.50;;
34657;SDS011;20865;43.312;27.152;2023-02-21T00:45:07;6.35;;;2.20;;
34657;SDS011;20865;43.312;27.152;2023-02-21T00:47:54;4.15;;;1.20;;
34657;SDS011;20865;43.312;27.152;2023-02-21T00:50:39;1.95;;;1.40;;
34657;SDS011;20865;43.312;27.152;2023-02-21T00:53:25;2.95;;;1.35;;
34657;SDS011;20865;43.312;27.152;2023-02-21T00:56:10;3.47;;;1.02;;
34657;SDS011;20865;43.312;27.152;2023-02-21T00:58:56;1.45;;;0.88;;
34657;SDS011;20865;43.312;27.152;2023-02-21T01:01:41;2.47;;;0.90;;
34657;SDS011;20865;43.312;27.152;2023-02-21T01:04:27;2.00;;;1.17;;
34657;SDS011;20865;43.312;27.152;2023-02-21T01:07:12;3.72;;;1.25;;
34657;SDS011;20865;43.312;27.152;2023-02-21T01:09:58;9.55;;;1.20;;
34657;SDS011;20865;43.312;27.152;2023-02-21T01:12:44;2.50;;;1.62;;
34657;SDS011;20865;43.312;27.152;2023-02-21T01:15:30;1.15;;;0.80;;
34657;SDS011;20865;43.312;27.152;2023-02-21T01:18:15;3.92;;;1.10;;
34657;SDS011;20865;43.312;27.152;2023-02-21T01:21:00;2.25;;;0.98;;
34657;SDS011;20865;43.312;27.152;2023-02-21T01:23:46;3.15;;;0.82;;
34657;SDS011;20865;43.312;27.152;2023-02-21T01:26:32;7.37;;;1.20;;
34657;SDS011;20865;43.312;27.152;2023-02-21T01:29:18;4.08;;;1.25;;
34657;SDS011;20865;43.312;27.152;2023-02-21T01:32:04;2.08;;;0.95;;
34657;SDS011;20865;43.312;27.152;2023-02-21T01:34:49;2.22;;;1.02;;
34657;SDS011;20865;43.312;27.152;2023-02-21T01:37:34;1.07;;;0.78;;
34657;SDS011;20865;43.312;27.152;2023-02-21T01:40:20;4.45;;;1.00;;
34657;SDS011;20865;43.312;27.152;2023-02-21T01:43:15;9.13;;;1.32;;
34657;SDS011;20865;43.312;27.152;2023-02-21T01:46:03;2.42;;;1.25;;
34657;SDS011;20865;43.312;27.152;2023-02-21T01:48:50;1.85;;;1.00;;
34657;SDS011;20865;43.312;27.152;2023-02-21T01:51:39;2.42;;;1.10;;
34657;SDS011;20865;43.312;27.152;2023-02-21T01:54:26;1.35;;;1.05;;
34657;SDS011;20865;43.312;27.152;2023-02-21T01:57:13;2.33;;;1.05;;
34657;SDS011;20865;43.312;27.152;2023-02-21T02:00:00;2.17;;;1.15;;
34657;SDS011;20865;43.312;27.152;2023-02-21T02:05:46;0.98;;;0.80;;
34657;SDS011;20865;43.312;27.152;2023-02-21T02:08:32;3.83;;;1.10;;
34657;SDS011;20865;43.312;27.152;2023-02-21T02:11:40;3.65;;;1.07;;
34657;SDS011;20865;43.312;27.152;2023-02-21T02:20:39;2.92;;;0.78;;
34657;SDS011;20865;43.312;27.152;2023-02-21T02:28:55;3.37;;;0.80;;
34657;SDS011;20865;43.312;27.152;2023-02-21T02:36:49;2.58;;;1.07;;
34657;SDS011;20865;43.312;27.152;2023-02-21T02:39:27;2.30;;;1.27;;
34657;SDS011;20865;43.312;27.152;2023-02-21T02:41:54;2.15;;;1.02;;
34657;SDS011;20865;43.312;27.152;2023-02-21T02:44:36;2.30;;;0.90;;
34657;SDS011;20865;43.312;27.152;2023-02-21T02:47:13;1.37;;;1.00;;
34657;SDS011;20865;43.312;27.152;2023-02-21T02:49:40;1.37;;;0.90;;
34657;SDS011;20865;43.312;27.152;2023-02-21T02:52:10;2.08;;;1.07;;
34657;SDS011;20865;43.312;27.152;2023-02-21T02:54:38;1.67;;;0.85;;
34657;SDS011;20865;43.312;27.152;2023-02-21T02:57:06;1.95;;;0.80;;
34657;SDS011;20865;43.312;27.152;2023-02-21T02:59:38;1.02;;;0.75;;
34657;SDS011;20865;43.312;27.152;2023-02-21T03:02:51;1.55;;;0.98;;
34657;SDS011;20865;43.312;27.152;2023-02-21T03:08:02;1.50;;;0.80;;
34657;SDS011;20865;43.312;27.152;2023-02-21T03:10:46;1.55;;;1.05;;
34657;SDS011;20865;43.312;27.152;2023-02-21T03:13:22;2.08;;;1.00;;
34657;SDS011;20865;43.312;27.152;2023-02-21T03:16:15;1.60;;;0.82;;
34657;SDS011;20865;43.312;27.152;2023-02-21T03:18:48;1.10;;;0.70;;
34657;SDS011;20865;43.312;27.152;2023-02-21T03:21:19;1.62;;;0.98;;
34657;SDS011;20865;43.312;27.152;2023-02-21T03:23:43;2.52;;;1.32;;
34657;SDS011;20865;43.312;27.152;2023-02-21T03:26:14;3.85;;;1.17;;
34657;SDS011;20865;43.312;27.152;2023-02-21T03:28:44;3.08;;;1.00;;
34657;SDS011;20865;43.312;27.152;2023-02-21T03:31:14;2.30;;;1.30;;
34657;SDS011;20865;43.312;27.152;2023-02-21T03:33:44;1.27;;;0.88;;
34657;SDS011;20865;43.312;27.152;2023-02-21T03:36:11;3.02;;;1.40;;
34657;SDS011;20865;43.312;27.152;2023-02-21T03:38:40;1.42;;;1.10;;
34657;SDS011;20865;43.312;27.152;2023-02-21T03:41:08;3.60;;;1.05;;
34657;SDS011;20865;43.312;27.152;2023-02-21T03:43:37;3.40;;;1.98;;
34657;SDS011;20865;43.312;27.152;2023-02-21T03:46:05;4.00;;;1.47;;
34657;SDS011;20865;43.312;27.152;2023-02-21T03:48:33;2.72;;;1.32;;
34657;SDS011;20865;43.312;27.152;2023-02-21T03:51:00;4.03;;;1.20;;
34657;SDS011;20865;43.312;27.152;2023-02-21T03:53:28;2.17;;;1.22;;
34657;SDS011;20865;43.312;27.152;2023-02-21T03:55:55;2.60;;;1.30;;
34657;SDS011;20865;43.312;27.152;2023-02-21T03:58:23;3.27;;;1.40;;
34657;SDS011;20865;43.312;27.152;2023-02-21T04:00:51;3.50;;;1.45;;
34657;SDS011;20865;43.312;27.152;2023-02-21T04:03:19;1.98;;;1.00;;
34657;SDS011;20865;43.312;27.152;2023-02-21T04:05:47;5.37;;;1.40;;
34657;SDS011;20865;43.312;27.152;2023-02-21T04:08:15;1.52;;;0.90;;
34657;SDS011;20865;43.312;27.152;2023-02-21T04:10:43;4.25;;;1.67;;
34657;SDS011;20865;43.312;27.152;2023-02-21T04:13:11;2.65;;;1.40;;
34657;SDS011;20865;43.312;27.152;2023-02-21T04:15:38;2.50;;;1.42;;
34657;SDS011;20865;43.312;27.152;2023-02-21T04:18:06;1.60;;;1.00;;
34657;SDS011;20865;43.312;27.152;2023-02-21T04:20:33;2.45;;;1.22;;
34657;SDS011;20865;43.312;27.152;2023-02-21T04:23:01;2.02;;;1.30;;
34657;SDS011;20865;43.312;27.152;2023-02-21T04:25:28;0.85;;;0.80;;
34657;SDS011;20865;43.312;27.152;2023-02-21T04:27:56;2.20;;;1.00;;
34657;SDS011;20865;43.312;27.152;2023-02-21T04:30:24;3.33;;;1.00;;
34657;SDS011;20865;43.312;27.152;2023-02-21T04:32:51;1.95;;;0.82;;
34657;SDS011;20865;43.312;27.152;2023-02-21T04:35:19;2.85;;;1.12;;
34657;SDS011;20865;43.312;27.152;2023-02-21T04:37:47;2.58;;;1.17;;
34657;SDS011;20865;43.312;27.152;2023-02-21T04:40:14;2.85;;;1.12;;
34657;SDS011;20865;43.312;27.152;2023-02-21T04:42:42;3.33;;;1.32;;
34657;SDS011;20865;43.312;27.152;2023-02-21T04:45:09;2.67;;;1.30;;
34657;SDS011;20865;43.312;27.152;2023-02-21T04:47:37;1.40;;;1.10;;
34657;SDS011;20865;43.312;27.152;2023-02-21T04:50:05;2.30;;;1.17;;
34657;SDS011;20865;43.312;27.152;2023-02-21T04:52:33;3.22;;;1.32;;
34657;SDS011;20865;43.312;27.152;2023-02-21T04:55:02;2.20;;;1.32;;
34657;SDS011;20865;43.312;27.152;2023-02-21T04:57:30;2.20;;;1.40;;
34657;SDS011;20865;43.312;27.152;2023-02-21T04:59:58;2.00;;;1.37;;
34657;SDS011;20865;43.312;27.152;2023-02-21T05:02:26;4.40;;;1.27;;
34657;SDS011;20865;43.312;27.152;2023-02-21T05:04:54;4.58;;;1.30;;
34657;SDS011;20865;43.312;27.152;2023-02-21T05:07:22;2.58;;;1.32;;
34657;SDS011;20865;43.312;27.152;2023-02-21T05:09:50;4.95;;;1.47;;
34657;SDS011;20865;43.312;27.152;2023-02-21T05:12:17;2.20;;;1.20;;
34657;SDS011;20865;43.312;27.152;2023-02-21T05:14:45;2.35;;;1.20;;
34657;SDS011;20865;43.312;27.152;2023-02-21T05:17:13;3.33;;;1.50;;
34657;SDS011;20865;43.312;27.152;2023-02-21T05:19:41;1.62;;;1.00;;
34657;SDS011;20865;43.312;27.152;2023-02-21T05:22:08;2.17;;;1.37;;
34657;SDS011;20865;43.312;27.152;2023-02-21T05:24:39;2.52;;;1.47;;
34657;SDS011;20865;43.312;27.152;2023-02-21T05:27:07;3.33;;;1.55;;
34657;SDS011;20865;43.312;27.152;2023-02-21T05:29:36;5.58;;;1.60;;
34657;SDS011;20865;43.312;27.152;2023-02-21T05:32:03;3.02;;;1.57;;
34657;SDS011;20865;43.312;27.152;2023-02-21T05:34:31;3.95;;;1.67;;
34657;SDS011;20865;43.312;27.152;2023-02-21T05:36:59;2.35;;;1.40;;
34657;SDS011;20865;43.312;27.152;2023-02-21T05:39:26;1.87;;;1.30;;
34657;SDS011;20865;43.312;27.152;2023-02-21T05:41:54;4.95;;;1.30;;
34657;SDS011;20865;43.312;27.152;2023-02-21T05:44:21;2.33;;;1.62;;
34657;SDS011;20865;43.312;27.152;2023-02-21T05:46:49;2.22;;;1.57;;
34657;SDS011;20865;43.312;27.152;2023-02-21T05:49:17;2.95;;;1.40;;
34657;SDS011;20865;43.312;27.152;2023-02-21T05:51:45;1.77;;;1.22;;
34657;SDS011;20865;43.312;27.152;2023-02-21T05:54:18;3.05;;;1.80;;
34657;SDS011;20865;43.312;27.152;2023-02-21T05:56:44;2.37;;;1.55;;
34657;SDS011;20865;43.312;27.152;2023-02-21T05:59:14;1.87;;;1.37;;
34657;SDS011;20865;43.312;27.152;2023-02-21T06:01:44;3.55;;;1.65;;
34657;SDS011;20865;43.312;27.152;2023-02-21T06:04:12;2.33;;;1.50;;
34657;SDS011;20865;43.312;27.152;2023-02-21T06:06:40;4.35;;;1.32;;
34657;SDS011;20865;43.312;27.152;2023-02-21T06:09:08;2.72;;;1.50;;
34657;SDS011;20865;43.312;27.152;2023-02-21T06:11:37;3.55;;;1.77;;
34657;SDS011;20865;43.312;27.152;2023-02-21T06:14:06;2.87;;;1.75;;
34657;SDS011;20865;43.312;27.152;2023-02-21T06:16:44;2.62;;;1.60;;
34657;SDS011;20865;43.312;27.152;2023-02-21T06:19:13;3.67;;;1.92;;
34657;SDS011;20865;43.312;27.152;2023-02-21T06:21:44;3.87;;;1.90;;
34657;SDS011;20865;43.312;27.152;2023-02-21T06:24:12;2.77;;;1.47;;
34657;SDS011;20865;43.312;27.152;2023-02-21T06:26:39;2.55;;;1.72;;
34657;SDS011;20865;43.312;27.152;2023-02-21T06:29:10;7.00;;;1.82;;
34657;SDS011;20865;43.312;27.152;2023-02-21T06:31:37;3.70;;;1.45;;
34657;SDS011;20865;43.312;27.152;2023-02-21T06:34:05;2.47;;;1.42;;
34657;SDS011;20865;43.312;27.152;2023-02-21T06:36:32;1.98;;;1.32;;
34657;SDS011;20865;43.312;27.152;2023-02-21T06:39:00;3.83;;;1.67;;
34657;SDS011;20865;43.312;27.152;2023-02-21T06:41:28;4.00;;;1.95;;
34657;SDS011;20865;43.312;27.152;2023-02-21T06:43:57;5.53;;;1.82;;
34657;SDS011;20865;43.312;27.152;2023-02-21T06:46:26;2.52;;;1.87;;
34657;SDS011;20865;43.312;27.152;2023-02-21T06:48:55;3.67;;;1.72;;
34657;SDS011;20865;43.312;27.152;2023-02-21T06:51:23;4.08;;;1.75;;
34657;SDS011;20865;43.312;27.152;2023-02-21T06:53:54;4.67;;;1.82;;
34657;SDS011;20865;43.312;27.152;2023-02-21T06:56:23;3.20;;;1.60;;
34657;SDS011;20865;43.312;27.152;2023-02-21T06:58:53;5.12;;;1.87;;
34657;SDS011;20865;43.312;27.152;2023-02-21T07:01:21;3.90;;;1.92;;
34657;SDS011;20865;43.312;27.152;2023-02-21T07:03:53;3.83;;;1.95;;
34657;SDS011;20865;43.312;27.152;2023-02-21T07:06:22;4.50;;;1.80;;
34657;SDS011;20865;43.312;27.152;2023-02-21T07:08:49;4.30;;;1.87;;
34657;SDS011;20865;43.312;27.152;2023-02-21T07:11:17;3.15;;;1.72;;
34657;SDS011;20865;43.312;27.152;2023-02-21T07:13:49;5.30;;;1.72;;
34657;SDS011;20865;43.312;27.152;2023-02-21T07:16:16;9.50;;;2.20;;
34657;SDS011;20865;43.312;27.152;2023-02-21T07:18:45;3.10;;;1.62;;
34657;SDS011;20865;43.312;27.152;2023-02-21T07:21:13;5.72;;;1.80;;
34657;SDS011;20865;43.312;27.152;2023-02-21T07:23:44;4.33;;;2.10;;
34657;SDS011;20865;43.312;27.152;2023-02-21T07:26:13;3.27;;;1.95;;
34657;SDS011;20865;43.312;27.152;2023-02-21T07:28:41;4.65;;;1.82;;
34657;SDS011;20865;43.312;27.152;2023-02-21T07:31:10;4.90;;;1.95;;
34657;SDS011;20865;43.312;27.152;2023-02-21T07:33:38;3.65;;;1.98;;
34657;SDS011;20865;43.312;27.152;2023-02-21T07:36:05;8.40;;;1.57;;
34657;SDS011;20865;43.312;27.152;2023-02-21T07:38:34;5.72;;;1.80;;
34657;SDS011;20865;43.312;27.152;2023-02-21T07:41:02;6.80;;;1.82;;
34657;SDS011;20865;43.312;27.152;2023-02-21T07:43:30;3.47;;;1.87;;
34657;SDS011;20865;43.312;27.152;2023-02-21T07:45:58;4.42;;;2.45;;
34657;SDS011;20865;43.312;27.152;2023-02-21T07:48:25;5.47;;;1.60;;
34657;SDS011;20865;43.312;27.152;2023-02-21T07:50:53;3.58;;;1.87;;
34657;SDS011;20865;43.312;27.152;2023-02-21T07:53:22;3.62;;;2.00;;
34657;SDS011;20865;43.312;27.152;2023-02-21T07:55:50;3.47;;;1.60;;
34657;SDS011;20865;43.312;27.152;2023-02-21T07:58:17;4.30;;;1.90;;
34657;SDS011;20865;43.312;27.152;2023-02-21T08:00:45;2.83;;;1.77;;
34657;SDS011;20865;43.312;27.152;2023-02-21T08:03:13;3.92;;;1.98;;
34657;SDS011;20865;43.312;27.152;2023-02-21T08:05:40;9.15;;;1.80;;
34657;SDS011;20865;43.312;27.152;2023-02-21T08:08:08;11.28;;;2.40;;
34657;SDS011;20865;43.312;27.152;2023-02-21T08:10:36;3.00;;;1.75;;
34657;SDS011;20865;43.312;27.152;2023-02-21T08:13:04;6.33;;;2.17;;
34657;SDS011;20865;43.312;27.152;2023-02-21T08:15:32;7.45;;;1.80;;
34657;SDS011;20865;43.312;27.152;2023-02-21T08:17:59;2.90;;;2.02;;
34657;SDS011;20865;43.312;27.152;2023-02-21T08:20:27;5.00;;;1.67;;
34657;SDS011;20865;43.312;27.152;2023-02-21T08:22:54;4.97;;;1.80;;
34657;SDS011;20865;43.312;27.152;2023-02-21T08:25:22;6.30;;;1.70;;
34657;SDS011;20865;43.312;27.152;2023-02-21T08:27:50;5.33;;;3.17;;
34657;SDS011;20865;43.312;27.152;2023-02-21T08:30:18;11.83;;;2.17;;
34657;SDS011;20865;43.312;27.152;2023-02-21T08:32:45;4.35;;;1.70;;
34657;SDS011;20865;43.312;27.152;2023-02-21T08:35:13;6.53;;;1.85;;
34657;SDS011;20865;43.312;27.152;2023-02-21T08:37:45;3.85;;;1.75;;
34657;SDS011;20865;43.312;27.152;2023-02-21T08:40:14;6.10;;;1.92;;
34657;SDS011;20865;43.312;27.152;2023-02-21T08:42:46;4.22;;;1.80;;
34657;SDS011;20865;43.312;27.152;2023-02-21T08:45:17;3.50;;;1.95;;
34657;SDS011;20865;43.312;27.152;2023-02-21T08:47:47;2.50;;;1.82;;
34657;SDS011;20865;43.312;27.152;2023-02-21T08:50:16;5.87;;;2.00;;
34657;SDS011;20865;43.312;27.152;2023-02-21T08:52:45;6.25;;;1.98;;
34657;SDS011;20865;43.312;27.152;2023-02-21T08:55:13;20.43;;;3.67;;
34657;SDS011;20865;43.312;27.152;2023-02-21T08:57:42;11.15;;;2.22;;
34657;SDS011;20865;43.312;27.152;2023-02-21T09:00:10;2.92;;;1.60;;
34657;SDS011;20865;43.312;27.152;2023-02-21T09:02:39;11.40;;;2.47;;
34657;SDS011;20865;43.312;27.152;2023-02-21T09:05:11;7.67;;;1.70;;
34657;SDS011;20865;43.312;27.152;2023-02-21T09:07:40;3.83;;;2.02;;
34657;SDS011;20865;43.312;27.152;2023-02-21T09:10:08;7.35;;;1.82;;
34657;SDS011;20865;43.312;27.152;2023-02-21T09:12:37;7.30;;;1.72;;
34657;SDS011;20865;43.312;27.152;2023-02-21T09:15:05;5.40;;;2.37;;
34657;SDS011;20865;43.312;27.152;2023-02-21T09:17:34;3.85;;;1.60;;
34657;SDS011;20865;43.312;27.152;2023-02-21T09:20:08;6.12;;;1.75;;
34657;SDS011;20865;43.312;27.152;2023-02-21T09:22:32;9.35;;;1.65;;
34657;SDS011;20865;43.312;27.152;2023-02-21T09:25:00;9.15;;;1.37;;
34657;SDS011;20865;43.312;27.152;2023-02-21T09:27:29;3.77;;;1.82;;
34657;SDS011;20865;43.312;27.152;2023-02-21T09:30:08;3.98;;;1.70;;
34657;SDS011;20865;43.312;27.152;2023-02-21T09:32:33;9.90;;;1.60;;
34657;SDS011;20865;43.312;27.152;2023-02-21T09:35:02;17.42;;;3.75;;
34657;SDS011;20865;43.312;27.152;2023-02-21T09:37:30;4.87;;;2.00;;
34657;SDS011;20865;43.312;27.152;2023-02-21T09:39:58;9.33;;;1.80;;
34657;SDS011;20865;43.312;27.152;2023-02-21T09:42:29;3.87;;;1.70;;
34657;SDS011;20865;43.312;27.152;2023-02-21T09:44:57;7.33;;;1.57;;
34657;SDS011;20865;43.312;27.152;2023-02-21T09:47:32;11.60;;;2.08;;
34657;SDS011;20865;43.312;27.152;2023-02-21T09:50:04;15.00;;;1.77;;
34657;SDS011;20865;43.312;27.152;2023-02-21T09:52:33;8.33;;;1.77;;
34657;SDS011;20865;43.312;27.152;2023-02-21T09:55:12;10.35;;;1.90;;
34657;SDS011;20865;43.312;27.152;2023-02-21T09:57:38;7.30;;;1.65;;
34657;SDS011;20865;43.312;27.152;2023-02-21T10:00:14;2.10;;;1.22;;
34657;SDS011;20865;43.312;27.152;2023-02-21T10:03:30;7.62;;;1.75;;
34657;SDS011;20865;43.312;27.152;2023-02-21T10:05:19;8.55;;;1.62;;
34657;SDS011;20865;43.312;27.152;2023-02-21T10:07:58;2.55;;;1.07;;
34657;SDS011;20865;43.312;27.152;2023-02-21T10:10:35;9.13;;;1.62;;
34657;SDS011;20865;43.312;27.152;2023-02-21T10:13:06;10.23;;;1.22;;
34657;SDS011;20865;43.312;27.152;2023-02-21T10:18:38;13.95;;;2.70;;
34657;SDS011;20865;43.312;27.152;2023-02-21T10:21:24;7.20;;;1.75;;
34657;SDS011;20865;43.312;27.152;2023-02-21T10:23:52;3.17;;;1.30;;
34657;SDS011;20865;43.312;27.152;2023-02-21T10:26:27;1.77;;;1.17;;
34657;SDS011;20865;43.312;27.152;2023-02-21T10:28:53;9.88;;;1.42;;
34657;SDS011;20865;43.312;27.152;2023-02-21T10:33:58;1.20;;;0.80;;
34657;SDS011;20865;43.312;27.152;2023-02-21T10:36:26;13.20;;;1.90;;
34657;SDS011;20865;43.312;27.152;2023-02-21T10:41:34;6.28;;;1.30;;
34657;SDS011;20865;43.312;27.152;2023-02-21T10:44:07;14.83;;;1.37;;
34657;SDS011;20865;43.312;27.152;2023-02-21T10:52:05;1.52;;;1.05;;
34657;SDS011;20865;43.312;27.152;2023-02-21T10:54:38;14.68;;;1.12;;
34657;SDS011;20865;43.312;27.152;2023-02-21T10:57:06;13.65;;;1.25;;
34657;SDS011;20865;43.312;27.152;2023-02-21T10:59:37;47.13;;;3.00;;
34657;SDS011;20865;43.312;27.152;2023-02-21T11:02:25;7.35;;;1.52;;
34657;SDS011;20865;43.312;27.152;2023-02-21T11:05:05;11.40;;;1.72;;
34657;SDS011;20865;43.312;27.152;2023-02-21T11:07:39;6.92;;;1.02;;
34657;SDS011;20865;43.312;27.152;2023-02-21T11:10:52;9.00;;;1.60;;
34657;SDS011;20865;43.312;27.152;2023-02-21T11:13:00;7.20;;;1.77;;
34657;SDS011;20865;43.312;27.152;2023-02-21T11:15:19;5.20;;;1.22;;
34657;SDS011;20865;43.312;27.152;2023-02-21T11:17:53;8.23;;;0.93;;
34657;SDS011;20865;43.312;27.152;2023-02-21T11:20:19;1.85;;;1.10;;
34657;SDS011;20865;43.312;27.152;2023-02-21T11:22:48;8.28;;;1.12;;
34657;SDS011;20865;43.312;27.152;2023-02-21T11:25:24;8.78;;;1.05;;
34657;SDS011;20865;43.312;27.152;2023-02-21T11:28:27;1.10;;;0.78;;
34657;SDS011;20865;43.312;27.152;2023-02-21T11:30:36;8.75;;;2.33;;
34657;SDS011;20865;43.312;27.152;2023-02-21T11:33:08;4.03;;;1.07;;
34657;SDS011;20865;43.312;27.152;2023-02-21T11:38:28;8.23;;;1.35;;
34657;SDS011;20865;43.312;27.152;2023-02-21T11:40:56;6.43;;;1.20;;
34657;SDS011;20865;43.312;27.152;2023-02-21T11:43:24;7.70;;;1.45;;
34657;SDS011;20865;43.312;27.152;2023-02-21T11:48:32;1.52;;;0.93;;
34657;SDS011;20865;43.312;27.152;2023-02-21T11:50:58;2.77;;;0.90;;
34657;SDS011;20865;43.312;27.152;2023-02-21T11:53:30;4.62;;;1.20;;
34657;SDS011;20865;43.312;27.152;2023-02-21T11:56:06;6.50;;;1.07;;
34657;SDS011;20865;43.312;27.152;2023-02-21T12:01:42;2.22;;;0.90;;
34657;SDS011;20865;43.312;27.152;2023-02-21T12:06:56;3.53;;;1.27;;
34657;SDS011;20865;43.312;27.152;2023-02-21T12:12:38;1.70;;;1.00;;
34657;SDS011;20865;43.312;27.152;2023-02-21T12:15:23;1.37;;;0.85;;
34657;SDS011;20865;43.312;27.152;2023-02-21T12:18:08;2.10;;;0.85;;
34657;SDS011;20865;43.312;27.152;2023-02-21T12:23:56;6.83;;;1.00;;
34657;SDS011;20865;43.312;27.152;2023-02-21T12:38:03;4.17;;;1.05;;
34657;SDS011;20865;43.312;27.152;2023-02-21T12:46:20;1.60;;;1.10;;
34657;SDS011;20865;43.312;27.152;2023-02-21T12:51:27;5.67;;;1.22;;
34657;SDS011;20865;43.312;27.152;2023-02-21T12:54:02;5.80;;;1.10;;
34657;SDS011;20865;43.312;27.152;2023-02-21T12:56:38;4.62;;;1.32;;
34657;SDS011;20865;43.312;27.152;2023-02-21T12:59:20;7.35;;;1.30;;
34657;SDS011;20865;43.312;27.152;2023-02-21T13:01:57;3.45;;;0.82;;
34657;SDS011;20865;43.312;27.152;2023-02-21T13:09:48;2.30;;;1.00;;
34657;SDS011;20865;43.312;27.152;2023-02-21T13:12:37;5.22;;;1.47;;
34657;SDS011;20865;43.312;27.152;2023-02-21T13:15:14;3.00;;;1.02;;
34657;SDS011;20865;43.312;27.152;2023-02-21T13:20:29;6.83;;;1.42;;
34657;SDS011;20865;43.312;27.152;2023-02-21T13:29:12;2.67;;;0.80;;
34657;SDS011;20865;43.312;27.152;2023-02-21T13:31:54;2.15;;;0.93;;
34657;SDS011;20865;43.312;27.152;2023-02-21T13:34:29;3.15;;;1.45;;
34657;SDS011;20865;43.312;27.152;2023-02-21T13:37:00;2.15;;;1.25;;
34657;SDS011;20865;43.312;27.152;2023-02-21T13:39:30;2.45;;;1.27;;
34657;SDS011;20865;43.312;27.152;2023-02-21T13:42:08;2.87;;;1.05;;
34657;SDS011;20865;43.312;27.152;2023-02-21T13:44:44;5.15;;;1.02;;
34657;SDS011;20865;43.312;27.152;2023-02-21T13:47:20;3.70;;;1.10;;
34657;SDS011;20865;43.312;27.152;2023-02-21T13:49:48;5.60;;;1.07;;
34657;SDS011;20865;43.312;27.152;2023-02-21T14:16:32;1.95;;;1.00;;
34657;SDS011;20865;43.312;27.152;2023-02-21T14:19:05;2.08;;;1.00;;
34657;SDS011;20865;43.312;27.152;2023-02-21T14:34:48;2.47;;;1.27;;
34657;SDS011;20865;43.312;27.152;2023-02-21T14:37:16;2.02;;;1.10;;
34657;SDS011;20865;43.312;27.152;2023-02-21T15:02:13;7.62;;;1.12;;
34657;SDS011;20865;43.312;27.152;2023-02-21T15:04:45;8.30;;;1.50;;
34657;SDS011;20865;43.312;27.152;2023-02-21T15:07:20;6.83;;;1.30;;
34657;SDS011;20865;43.312;27.152;2023-02-21T15:10:18;1.40;;;1.10;;
34657;SDS011;20865;43.312;27.152;2023-02-21T15:12:50;1.47;;;1.10;;
34657;SDS011;20865;43.312;27.152;2023-02-21T15:15:17;12.70;;;1.57;;
34657;SDS011;20865;43.312;27.152;2023-02-21T15:17:56;2.55;;;1.37;;
34657;SDS011;20865;43.312;27.152;2023-02-21T15:20:25;4.08;;;1.92;;
34657;SDS011;20865;43.312;27.152;2023-02-21T15:23:00;3.52;;;1.50;;
34657;SDS011;20865;43.312;27.152;2023-02-21T15:25:25;4.25;;;1.00;;
34657;SDS011;20865;43.312;27.152;2023-02-21T15:27:58;1.70;;;1.10;;
34657;SDS011;20865;43.312;27.152;2023-02-21T15:30:38;2.42;;;1.32;;
34657;SDS011;20865;43.312;27.152;2023-02-21T15:33:21;2.12;;;1.30;;
34657;SDS011;20865;43.312;27.152;2023-02-21T15:35:44;5.67;;;1.57;;
34657;SDS011;20865;43.312;27.152;2023-02-21T15:38:22;2.08;;;1.40;;
34657;SDS011;20865;43.312;27.152;2023-02-21T15:40:51;3.67;;;1.87;;
34657;SDS011;20865;43.312;27.152;2023-02-21T15:43:24;4.37;;;1.20;;
34657;SDS011;20865;43.312;27.152;2023-02-21T15:45:51;8.98;;;2.00;;
34657;SDS011;20865;43.312;27.152;2023-02-21T15:48:21;5.33;;;3.33;;
34657;SDS011;20865;43.312;27.152;2023-02-21T15:50:49;35.13;;;16.02;;
34657;SDS011;20865;43.312;27.152;2023-02-21T15:53:21;15.30;;;6.22;;
34657;SDS011;20865;43.312;27.152;2023-02-21T15:55:52;51.40;;;27.13;;
34657;SDS011;20865;43.312;27.152;2023-02-21T15:58:23;25.25;;;17.45;;
34657;SDS011;20865;43.312;27.152;2023-02-21T16:01:05;17.85;;;9.93;;
34657;SDS011;20865;43.312;27.152;2023-02-21T16:03:41;10.68;;;7.95;;
34657;SDS011;20865;43.312;27.152;2023-02-21T16:09:00;4.17;;;2.25;;
34657;SDS011;20865;43.312;27.152;2023-02-21T16:11:48;3.00;;;1.57;;
34657;SDS011;20865;43.312;27.152;2023-02-21T16:14:22;3.00;;;1.75;;
34657;SDS011;20865;43.312;27.152;2023-02-21T16:19:40;5.33;;;2.47;;
34657;SDS011;20865;43.312;27.152;2023-02-21T16:22:24;3.60;;;2.30;;
34657;SDS011;20865;43.312;27.152;2023-02-21T16:25:05;5.42;;;2.55;;
34657;SDS011;20865;43.312;27.152;2023-02-21T16:27:38;5.83;;;3.50;;
34657;SDS011;20865;43.312;27.152;2023-02-21T16:30:11;2.52;;;1.57;;
34657;SDS011;20865;43.312;27.152;2023-02-21T16:32:40;12.23;;;5.67;;
34657;SDS011;20865;43.312;27.152;2023-02-21T16:35:13;5.62;;;2.83;;
34657;SDS011;20865;43.312;27.152;2023-02-21T16:37:45;6.83;;;2.65;;
34657;SDS011;20865;43.312;27.152;2023-02-21T16:40:15;13.90;;;6.50;;
34657;SDS011;20865;43.312;27.152;2023-02-21T16:42:51;13.93;;;5.15;;
34657;SDS011;20865;43.312;27.152;2023-02-21T16:45:20;17.40;;;4.75;;
34657;SDS011;20865;43.312;27.152;2023-02-21T16:47:49;9.33;;;3.83;;
34657;SDS011;20865;43.312;27.152;2023-02-21T16:50:21;5.33;;;2.08;;
34657;SDS011;20865;43.312;27.152;2023-02-21T16:52:49;6.62;;;2.65;;
34657;SDS011;20865;43.312;27.152;2023-02-21T16:55:16;2.62;;;1.70;;
34657;SDS011;20865;43.312;27.152;2023-02-21T16:57:46;2.85;;;1.70;;
34657;SDS011;20865;43.312;27.152;2023-02-21T17:00:15;3.77;;;1.92;;
34657;SDS011;20865;43.312;27.152;2023-02-21T17:02:46;3.70;;;1.85;;
34657;SDS011;20865;43.312;27.152;2023-02-21T17:05:19;7.50;;;1.80;;
34657;SDS011;20865;43.312;27.152;2023-02-21T17:07:52;7.15;;;1.82;;
34657;SDS011;20865;43.312;27.152;2023-02-21T17:10:18;6.03;;;1.92;;
34657;SDS011;20865;43.312;27.152;2023-02-21T17:12:46;2.67;;;1.72;;
34657;SDS011;20865;43.312;27.152;2023-02-21T17:15:14;2.77;;;1.70;;
34657;SDS011;20865;43.312;27.152;2023-02-21T17:17:42;4.95;;;1.57;;
34657;SDS011;20865;43.312;27.152;2023-02-21T17:20:13;3.60;;;1.50;;
34657;SDS011;20865;43.312;27.152;2023-02-21T17:22:42;3.55;;;1.70;;
34657;SDS011;20865;43.312;27.152;2023-02-21T17:25:12;2.08;;;1.50;;
34657;SDS011;20865;43.312;27.152;2023-02-21T17:27:41;3.30;;;1.42;;
34657;SDS011;20865;43.312;27.152;2023-02-21T17:30:10;5.08;;;1.77;;
34657;SDS011;20865;43.312;27.152;2023-02-21T17:32:38;7.25;;;1.95;;
34657;SDS011;20865;43.312;27.152;2023-02-21T17:35:07;3.67;;;2.05;;
34657;SDS011;20865;43.312;27.152;2023-02-21T17:37:35;12.88;;;5.97;;
34657;SDS011;20865;43.312;27.152;2023-02-21T17:40:02;15.25;;;5.00;;